createdAt,value
2022-09-22T00:05:31.334Z,102403.94
2022-09-22T00:15:53.641Z,102406.06
2022-09-22T00:26:21.741Z,102391.84
2022-09-22T00:36:43.781Z,102399.75
2022-09-22T00:47:20.531Z,102392.00
2022-09-22T00:57:44.728Z,102383.56
2022-09-22T01:08:07.633Z,102382.25
2022-09-22T01:18:50.719Z,102368.53
2022-09-22T01:29:50.518Z,102352.06
2022-09-22T01:40:19.910Z,102352.13
2022-09-22T01:51:04.469Z,102338.72
2022-09-22T02:01:33.331Z,102341.09
2022-09-22T02:11:55.079Z,102326.66
2022-09-22T02:22:16.547Z,102322.56
2022-09-22T02:32:43.469Z,102325.72
2022-09-22T02:43:21.276Z,102318.75
2022-09-22T02:53:42.754Z,102314.63
2022-09-22T03:04:05.388Z,102304.50
2022-09-22T03:14:27.114Z,102298.69
2022-09-22T03:24:48.563Z,102293.69
2022-09-22T03:35:10.222Z,102283.66
2022-09-22T03:45:31.655Z,102279.69
2022-09-22T03:55:53.169Z,102280.44
2022-09-22T04:06:15.002Z,102275.25
2022-09-22T04:16:36.607Z,102270.63
2022-09-22T04:37:39.557Z,102264.84
2022-09-22T04:48:01.344Z,102263.84
2022-09-22T04:58:23.066Z,102265.50
2022-09-22T05:08:44.589Z,102261.19
2022-09-22T05:19:06.059Z,102261.28
2022-09-22T05:29:28.205Z,102255.81
2022-09-22T05:39:49.761Z,102265.34
2022-09-22T05:50:14.285Z,102266.09
2022-09-22T06:00:36.633Z,102276.22
2022-09-22T06:10:58.513Z,102275.84
2022-09-22T06:21:20.835Z,102279.78
2022-09-22T06:31:42.343Z,102273.19
2022-09-22T06:42:07.232Z,102271.94
2022-09-22T06:52:28.986Z,102269.16
2022-09-22T07:02:50.440Z,102267.38
2022-09-22T07:13:11.923Z,102266.34
2022-09-22T07:23:36.559Z,102273.28
2022-09-22T07:34:01.402Z,102264.84
2022-09-22T07:44:44.444Z,102261.47
2022-09-22T07:55:07.077Z,102269.25
2022-09-22T08:05:29.748Z,102264.88
2022-09-22T08:15:55.213Z,102271.44
2022-09-22T08:26:16.717Z,102269.84
2022-09-22T08:36:38.169Z,102281.97
2022-09-22T08:47:01.536Z,102276.16
2022-09-22T08:58:00.712Z,102269.44
2022-09-22T09:08:37.465Z,102267.63
2022-09-22T09:19:26.853Z,102268.34
2022-09-22T09:29:57.301Z,102254.03
2022-09-22T09:40:19.927Z,102254.91
2022-09-22T09:50:41.334Z,102243.94
2022-09-22T10:01:05.384Z,102234.63
2022-09-22T10:11:31.864Z,102228.75
2022-09-22T10:21:54.006Z,102219.59
2022-09-22T10:32:16.143Z,102216.84
2022-09-22T10:42:37.542Z,102207.19
2022-09-22T10:53:08.836Z,102201.13
2022-09-22T11:03:30.267Z,102197.63
2022-09-22T11:13:59.886Z,102195.84
2022-09-22T11:24:21.274Z,102197.50
2022-09-22T11:34:43.071Z,102185.25
2022-09-22T11:45:14.054Z,102173.59
2022-09-22T11:55:46.045Z,102155.31
2022-09-22T12:06:10.537Z,102131.66
2022-09-22T12:16:39.243Z,102133.34
2022-09-22T12:27:10.293Z,102120.31
2022-09-22T12:37:33.261Z,102113.34
2022-09-22T12:47:56.897Z,102102.34
2022-09-22T12:58:21.473Z,102090.59
2022-09-22T13:08:42.821Z,102086.25
2022-09-22T13:19:08.130Z,102079.78
2022-09-22T13:29:29.651Z,102065.31
2022-09-22T13:39:52.718Z,102066.47
2022-09-22T13:50:22.401Z,102063.03
2022-09-22T14:01:12.235Z,102049.69
2022-09-22T14:11:32.450Z,102041.00
2022-09-22T14:21:59.299Z,102024.34
2022-09-22T14:32:30.328Z,102016.50
2022-09-22T14:42:57.727Z,102011.34
2022-09-22T14:53:22.919Z,101997.72
2022-09-22T15:03:53.059Z,101986.56
2022-09-22T15:14:33.897Z,101977.13
2022-09-22T15:24:57.109Z,101975.91
2022-09-22T15:35:18.859Z,101953.84
2022-09-22T15:45:47.650Z,101954.44
2022-09-22T15:56:15.213Z,101944.38
2022-09-22T16:06:38.898Z,101932.13
2022-09-22T16:17:00.391Z,101924.84
2022-09-22T16:27:21.835Z,101918.88
2022-09-22T16:37:43.274Z,101916.59
2022-09-22T16:48:05.543Z,101909.25
2022-09-22T16:58:27.006Z,101915.44
2022-09-22T17:08:48.585Z,101914.09
2022-09-22T17:19:17.165Z,101916.72
2022-09-22T17:29:38.674Z,101902.00
2022-09-22T17:40:00.155Z,101913.44
2022-09-22T17:50:44.704Z,101905.34
2022-09-22T18:01:06.184Z,101910.50
2022-09-22T18:11:27.646Z,101909.78
2022-09-22T18:21:49.013Z,101906.97
2022-09-22T18:32:10.475Z,101908.19
2022-09-22T18:42:32.415Z,101901.19
2022-09-22T18:52:56.694Z,101910.72
2022-09-22T19:03:18.054Z,101909.25
2022-09-22T19:13:39.815Z,101900.38
2022-09-22T19:24:05.262Z,101888.72
2022-09-22T19:34:26.928Z,101899.94
2022-09-22T19:44:48.303Z,101894.91
2022-09-22T19:55:11.521Z,101889.00
2022-09-22T20:05:35.045Z,101877.03
2022-09-22T20:15:56.893Z,101874.91
2022-09-22T20:26:19.953Z,101880.91
2022-09-22T20:36:43.073Z,101873.16
2022-09-22T20:47:05.809Z,101857.41
2022-09-22T20:57:31.039Z,101859.50
2022-09-22T21:08:12.421Z,101855.28
2022-09-22T21:18:34.684Z,101850.41
2022-09-22T21:28:56.294Z,101843.16
2022-09-22T21:39:18.019Z,101835.66
2022-09-22T21:49:39.532Z,101824.44
2022-09-22T22:00:00.958Z,101815.91
2022-09-22T22:10:24.170Z,101810.72
2022-09-22T22:20:45.780Z,101806.00
2022-09-22T22:31:13.413Z,101803.69
2022-09-22T22:41:35.069Z,101792.97
2022-09-22T22:51:56.533Z,101791.41
2022-09-22T23:02:17.970Z,101781.78
2022-09-22T23:12:40.312Z,101769.50
2022-09-22T23:23:03.569Z,101761.25
2022-09-22T23:33:27.774Z,101761.53
2022-09-22T23:43:49.801Z,101746.84
2022-09-22T23:54:14.051Z,101735.03
